createdAt,value
2017-09-13T00:00:00.504Z,4.28
2017-09-13T00:02:28.828Z,4.20
2017-09-13T00:04:56.366Z,5.25
2017-09-13T00:07:23.900Z,4.78
2017-09-13T00:09:52.202Z,4.30
2017-09-13T00:12:19.727Z,4.12
2017-09-13T00:14:47.251Z,4.68
2017-09-13T00:17:14.766Z,4.05
2017-09-13T00:19:42.288Z,4.32
2017-09-13T00:22:10.588Z,4.07
2017-09-13T00:24:38.124Z,4.12
2017-09-13T00:27:05.676Z,4.50
2017-09-13T00:29:33.193Z,4.35
2017-09-13T00:32:00.695Z,4.18
2017-09-13T00:34:28.255Z,4.72
2017-09-13T00:36:56.025Z,3.92
2017-09-13T00:39:23.557Z,4.62
2017-09-13T00:41:51.107Z,4.68
2017-09-13T00:44:18.622Z,4.20
2017-09-13T00:46:46.922Z,3.95
2017-09-13T00:49:14.468Z,4.53
2017-09-13T00:51:42.744Z,3.70
2017-09-13T00:54:11.088Z,3.78
2017-09-13T00:56:38.609Z,4.43
2017-09-13T00:59:06.885Z,4.50
2017-09-13T01:01:34.393Z,3.65
2017-09-13T01:04:02.834Z,4.22
2017-09-13T01:06:30.377Z,3.65
2017-09-13T01:08:57.908Z,5.00
2017-09-13T01:11:25.437Z,4.20
2017-09-13T01:13:52.955Z,3.55
2017-09-13T01:16:20.474Z,4.30
2017-09-13T01:18:48.012Z,3.97
2017-09-13T01:21:15.519Z,2.75
2017-09-13T01:23:43.026Z,4.10
2017-09-13T01:26:10.556Z,4.20
2017-09-13T01:28:38.057Z,3.55
2017-09-13T01:31:05.793Z,3.97
2017-09-13T01:33:33.314Z,4.25
2017-09-13T01:36:01.619Z,3.22
2017-09-13T01:38:29.156Z,4.40
2017-09-13T01:40:56.669Z,3.95
2017-09-13T01:43:24.202Z,4.60
2017-09-13T01:45:51.725Z,4.80
2017-09-13T01:48:19.283Z,4.40
2017-09-13T01:50:47.584Z,3.37
2017-09-13T01:53:15.104Z,4.15
2017-09-13T01:55:42.652Z,4.37
2017-09-13T01:58:10.206Z,4.57
2017-09-13T02:00:37.874Z,4.12
2017-09-13T02:03:05.431Z,4.37
2017-09-13T02:05:32.981Z,5.20
2017-09-13T02:08:00.583Z,4.22
2017-09-13T02:10:28.086Z,5.20
2017-09-13T02:12:55.605Z,4.28
2017-09-13T02:15:23.133Z,5.55
2017-09-13T02:17:50.692Z,4.07
2017-09-13T02:20:18.230Z,3.80
2017-09-13T02:22:45.854Z,4.53
2017-09-13T02:25:13.392Z,4.47
2017-09-13T02:27:40.945Z,4.03
2017-09-13T02:30:08.474Z,4.32
2017-09-13T02:32:35.994Z,4.12
2017-09-13T02:35:04.265Z,4.40
2017-09-13T02:37:32.538Z,3.90
2017-09-13T02:40:00.847Z,3.78
2017-09-13T02:42:28.360Z,4.15
2017-09-13T02:44:55.873Z,3.53
2017-09-13T02:47:23.403Z,3.50
2017-09-13T02:49:51.715Z,3.90
2017-09-13T02:52:19.219Z,4.25
2017-09-13T02:54:46.778Z,3.78
2017-09-13T02:57:14.297Z,3.67
2017-09-13T02:59:41.811Z,4.35
2017-09-13T03:02:09.334Z,4.40
2017-09-13T03:04:36.850Z,3.87
2017-09-13T03:07:04.363Z,4.53
2017-09-13T03:09:31.898Z,4.03
2017-09-13T03:11:59.454Z,3.20
2017-09-13T03:14:26.959Z,2.97
2017-09-13T03:16:54.484Z,3.78
2017-09-13T03:19:22.779Z,3.17
2017-09-13T03:21:50.320Z,4.00
2017-09-13T03:24:17.841Z,3.55
2017-09-13T03:26:45.376Z,3.03
2017-09-13T03:29:13.648Z,3.62
2017-09-13T03:31:41.177Z,2.97
2017-09-13T03:34:08.704Z,4.05
2017-09-13T03:36:36.213Z,3.00
2017-09-13T03:39:03.776Z,4.03
2017-09-13T03:41:31.318Z,3.87
2017-09-13T03:43:58.836Z,2.58
2017-09-13T03:46:26.351Z,3.00
2017-09-13T03:48:53.868Z,3.12
2017-09-13T03:51:21.401Z,2.80
2017-09-13T03:53:49.686Z,2.75
2017-09-13T03:56:17.970Z,3.40
2017-09-13T03:58:45.487Z,2.87
2017-09-13T04:01:13.029Z,3.30
2017-09-13T04:03:41.477Z,3.53
2017-09-13T04:06:08.989Z,3.00
2017-09-13T04:08:36.524Z,2.80
2017-09-13T04:11:04.032Z,2.75
2017-09-13T04:13:31.576Z,2.65
2017-09-13T04:15:59.867Z,3.72
2017-09-13T04:18:28.134Z,2.95
2017-09-13T04:20:55.657Z,3.22
2017-09-13T04:23:23.197Z,2.92
2017-09-13T04:25:50.718Z,3.30
2017-09-13T04:28:19.002Z,3.17
2017-09-13T04:30:47.296Z,2.87
2017-09-13T04:33:14.815Z,2.62
2017-09-13T04:35:42.337Z,2.50
2017-09-13T04:38:09.867Z,3.28
2017-09-13T04:40:37.400Z,2.47
2017-09-13T04:43:04.922Z,2.45
2017-09-13T04:45:33.369Z,3.33
2017-09-13T04:48:00.898Z,2.92
2017-09-13T04:50:28.418Z,2.78
2017-09-13T04:52:55.930Z,3.60
2017-09-13T04:55:23.451Z,2.55
2017-09-13T04:57:50.965Z,2.70
2017-09-13T05:00:18.632Z,3.50
2017-09-13T05:02:46.206Z,3.97
2017-09-13T05:05:13.764Z,4.65
2017-09-13T05:07:41.292Z,2.83
2017-09-13T05:10:08.855Z,3.55
2017-09-13T05:12:37.271Z,2.55
2017-09-13T05:15:04.896Z,2.75
2017-09-13T05:17:32.433Z,3.17
2017-09-13T05:19:59.974Z,2.80
2017-09-13T05:22:27.483Z,2.90
2017-09-13T05:24:55.024Z,3.70
2017-09-13T05:27:23.374Z,2.83
2017-09-13T05:29:50.936Z,2.62
2017-09-13T05:32:18.458Z,3.00
2017-09-13T05:34:45.993Z,2.67
2017-09-13T05:37:13.527Z,2.95
2017-09-13T05:39:41.055Z,4.00
2017-09-13T05:42:08.580Z,1.77
2017-09-13T05:44:36.154Z,2.50
2017-09-13T05:47:03.678Z,3.42
2017-09-13T05:49:31.232Z,3.12
2017-09-13T05:51:58.779Z,3.20
2017-09-13T05:54:26.320Z,2.30
2017-09-13T05:56:53.821Z,2.60
2017-09-13T05:59:22.133Z,3.15
2017-09-13T06:01:49.651Z,3.00
2017-09-13T06:04:17.225Z,2.67
2017-09-13T06:06:45.517Z,2.97
2017-09-13T06:09:13.035Z,3.35
2017-09-13T06:11:40.560Z,2.60
2017-09-13T06:14:08.082Z,3.33
2017-09-13T06:16:37.148Z,2.83
2017-09-13T06:19:04.681Z,3.22
2017-09-13T06:21:32.230Z,3.70
2017-09-13T06:24:00.692Z,3.60
2017-09-13T06:26:28.217Z,3.03
2017-09-13T06:28:55.753Z,3.85
2017-09-13T06:31:23.274Z,3.90
2017-09-13T06:33:50.808Z,2.80
2017-09-13T06:36:19.803Z,3.47
2017-09-13T06:38:47.341Z,4.22
2017-09-13T06:41:14.876Z,4.00
2017-09-13T06:43:42.410Z,5.03
2017-09-13T06:46:09.966Z,5.50
2017-09-13T06:48:37.491Z,4.05
2017-09-13T06:51:05.045Z,4.05
2017-09-13T06:53:32.576Z,4.82
2017-09-13T06:56:00.121Z,4.15
2017-09-13T06:58:27.639Z,3.72
2017-09-13T07:00:55.921Z,3.58
2017-09-13T07:03:24.216Z,4.30
2017-09-13T07:05:51.736Z,3.03
2017-09-13T07:08:19.270Z,3.92
2017-09-13T07:10:46.779Z,5.35
2017-09-13T07:13:15.053Z,4.07
2017-09-13T07:15:43.331Z,3.92
2017-09-13T07:18:11.695Z,5.18
2017-09-13T07:20:39.215Z,5.90
2017-09-13T07:23:06.802Z,5.50
2017-09-13T07:25:34.372Z,7.62
2017-09-13T07:28:01.903Z,5.20
2017-09-13T07:30:29.431Z,5.00
2017-09-13T07:32:57.019Z,4.50
2017-09-13T07:35:24.618Z,5.00
2017-09-13T07:37:52.203Z,4.70
2017-09-13T07:40:19.733Z,4.97
2017-09-13T07:42:47.257Z,5.70
2017-09-13T07:45:14.786Z,5.65
2017-09-13T07:47:42.323Z,4.70
2017-09-13T07:50:10.628Z,6.90
2017-09-13T07:52:38.144Z,5.45
2017-09-13T07:55:05.708Z,5.95
2017-09-13T07:57:33.266Z,6.80
2017-09-13T08:00:00.857Z,4.10
2017-09-13T08:02:29.179Z,5.00
2017-09-13T08:04:56.707Z,5.25
2017-09-13T08:07:24.285Z,4.30
2017-09-13T08:09:51.796Z,5.30
2017-09-13T08:12:19.322Z,3.90
2017-09-13T08:14:46.887Z,3.80
2017-09-13T08:17:14.416Z,4.72
2017-09-13T08:19:42.017Z,4.50
2017-09-13T08:22:10.337Z,4.30
2017-09-13T08:24:37.878Z,3.80
2017-09-13T08:27:06.180Z,5.20
2017-09-13T08:29:33.718Z,4.45
2017-09-13T08:32:01.249Z,3.95
2017-09-13T08:34:28.838Z,5.75
2017-09-13T08:36:56.373Z,5.35
2017-09-13T08:39:23.914Z,3.95
2017-09-13T08:41:51.416Z,4.45
2017-09-13T08:44:18.954Z,4.72
2017-09-13T08:46:46.521Z,4.82
2017-09-13T08:49:14.054Z,4.75
2017-09-13T08:51:41.572Z,4.55
2017-09-13T08:54:09.112Z,2.87
2017-09-13T08:56:37.396Z,4.30
2017-09-13T08:59:05.695Z,4.40
2017-09-13T09:01:33.208Z,3.95
2017-09-13T09:04:00.734Z,4.68
2017-09-13T09:06:28.274Z,4.10
2017-09-13T09:08:55.803Z,4.45
2017-09-13T09:11:24.109Z,2.72
2017-09-13T09:13:51.694Z,5.80
2017-09-13T09:16:19.222Z,4.18
2017-09-13T09:18:46.741Z,5.32
2017-09-13T09:21:14.272Z,2.72
2017-09-13T09:23:41.803Z,4.60
2017-09-13T09:26:09.404Z,5.37
2017-09-13T09:28:36.953Z,4.00
2017-09-13T09:31:04.527Z,4.30
2017-09-13T09:33:32.083Z,4.43
2017-09-13T09:35:59.644Z,4.32
2017-09-13T09:38:27.160Z,4.20
2017-09-13T09:40:54.674Z,3.45
2017-09-13T09:43:22.244Z,3.20
2017-09-13T09:45:49.816Z,5.07
2017-09-13T09:48:17.530Z,2.95
2017-09-13T09:50:45.067Z,3.37
2017-09-13T09:53:13.006Z,3.85
2017-09-13T09:55:40.533Z,5.45
2017-09-13T09:58:08.047Z,3.53
2017-09-13T10:00:36.308Z,3.40
2017-09-13T10:03:03.873Z,2.87
2017-09-13T10:05:32.086Z,4.25
2017-09-13T10:07:59.606Z,3.50
2017-09-13T10:10:27.923Z,3.50
2017-09-13T10:12:55.534Z,3.62
2017-09-13T10:15:23.083Z,2.15
2017-09-13T10:17:50.609Z,2.85
2017-09-13T10:20:18.186Z,3.37
2017-09-13T10:22:45.823Z,3.60
2017-09-13T10:25:13.319Z,1.77
2017-09-13T10:27:40.944Z,2.87
2017-09-13T10:30:08.462Z,2.62
2017-09-13T10:32:36.772Z,2.60
2017-09-13T10:35:04.280Z,3.58
2017-09-13T10:37:31.806Z,2.87
2017-09-13T10:39:59.335Z,2.42
2017-09-13T10:42:27.639Z,1.70
2017-09-13T10:44:55.158Z,1.20
2017-09-13T10:47:22.696Z,1.83
2017-09-13T10:49:50.223Z,1.55
2017-09-13T10:52:17.772Z,2.45
2017-09-13T10:54:45.289Z,2.15
2017-09-13T10:57:12.812Z,1.70
2017-09-13T10:59:40.335Z,1.70
2017-09-13T11:02:07.876Z,2.45
2017-09-13T11:04:36.177Z,1.73
2017-09-13T11:07:03.694Z,2.65
2017-09-13T11:09:31.226Z,1.65
2017-09-13T11:11:58.761Z,1.65
2017-09-13T11:14:26.286Z,1.30
2017-09-13T11:16:53.838Z,1.50
2017-09-13T11:19:21.390Z,1.92
2017-09-13T11:21:48.940Z,1.40
2017-09-13T11:24:16.451Z,1.10
2017-09-13T11:26:43.966Z,0.85
2017-09-13T11:29:11.526Z,1.17
2017-09-13T11:31:39.054Z,1.00
2017-09-13T11:34:06.570Z,0.93
2017-09-13T11:36:34.089Z,1.25
2017-09-13T11:39:01.603Z,1.00
2017-09-13T11:41:29.132Z,1.00
2017-09-13T11:43:56.666Z,0.90
2017-09-13T11:46:24.189Z,0.90
2017-09-13T11:48:51.721Z,1.15
2017-09-13T11:51:19.255Z,1.17
2017-09-13T11:53:46.763Z,1.10
2017-09-13T11:56:14.340Z,0.98
2017-09-13T11:58:42.635Z,0.60
2017-09-13T12:01:10.200Z,0.70
2017-09-13T12:03:37.761Z,0.70
2017-09-13T12:06:05.283Z,0.60
2017-09-13T12:08:32.833Z,0.70
2017-09-13T12:11:00.363Z,0.85
2017-09-13T12:13:27.924Z,0.80
2017-09-13T12:15:55.449Z,0.90
2017-09-13T12:18:22.971Z,1.20
2017-09-13T12:20:51.291Z,0.70
2017-09-13T12:23:18.813Z,1.15
2017-09-13T12:25:46.331Z,0.70
2017-09-13T12:28:13.868Z,0.85
2017-09-13T12:30:41.372Z,1.05
2017-09-13T12:33:10.438Z,1.50
2017-09-13T12:35:37.978Z,0.80
2017-09-13T12:38:05.499Z,1.10
2017-09-13T12:40:33.813Z,1.15
2017-09-13T12:43:01.352Z,1.08
2017-09-13T12:45:28.874Z,0.95
2017-09-13T12:47:56.426Z,1.00
2017-09-13T12:50:23.956Z,1.00
2017-09-13T12:52:51.474Z,1.20
2017-09-13T12:55:19.756Z,0.77
2017-09-13T12:57:48.086Z,0.80
2017-09-13T13:00:15.608Z,0.88
2017-09-13T13:02:43.110Z,1.08
2017-09-13T13:05:10.654Z,1.27
2017-09-13T13:07:38.183Z,0.93
2017-09-13T13:10:05.804Z,0.85
2017-09-13T13:12:33.410Z,1.10
2017-09-13T13:15:01.679Z,1.17
2017-09-13T13:17:29.215Z,1.52
2017-09-13T13:19:56.740Z,1.20
2017-09-13T13:22:24.248Z,1.30
2017-09-13T13:24:52.557Z,1.20
2017-09-13T13:27:20.083Z,1.17
2017-09-13T13:29:47.603Z,2.08
2017-09-13T13:32:15.174Z,1.50
2017-09-13T13:34:42.713Z,1.30
2017-09-13T13:37:10.232Z,1.50
2017-09-13T13:39:37.725Z,1.27
2017-09-13T13:42:05.269Z,1.10
2017-09-13T13:44:32.807Z,1.42
2017-09-13T13:47:00.331Z,1.00
2017-09-13T13:49:27.867Z,1.40
2017-09-13T13:51:55.381Z,1.70
2017-09-13T13:54:23.664Z,1.50
2017-09-13T13:59:42.867Z,1.30
2017-09-13T14:02:10.390Z,1.85
2017-09-13T14:04:38.684Z,1.30
2017-09-13T14:07:06.202Z,2.00
2017-09-13T14:09:33.728Z,1.50
2017-09-13T14:12:01.246Z,1.40
2017-09-13T14:14:29.560Z,1.23
2017-09-13T14:16:57.861Z,1.30
2017-09-13T14:19:25.377Z,1.30
2017-09-13T14:21:52.909Z,1.58
2017-09-13T14:24:20.433Z,2.80
2017-09-13T14:26:48.800Z,0.70
2017-09-13T14:29:16.368Z,1.55
2017-09-13T14:31:43.899Z,1.00
2017-09-13T14:34:11.407Z,2.08
2017-09-13T14:36:39.567Z,1.17
2017-09-13T14:39:07.089Z,2.12
2017-09-13T14:41:34.626Z,1.42
2017-09-13T14:44:02.953Z,1.62
2017-09-13T14:46:30.474Z,1.50
2017-09-13T14:48:58.009Z,1.20
2017-09-13T14:51:25.559Z,1.30
2017-09-13T14:53:53.228Z,1.27
2017-09-13T14:56:20.756Z,1.40
2017-09-13T14:58:48.360Z,0.90
2017-09-13T15:01:15.879Z,2.25
2017-09-13T15:03:43.397Z,1.92
2017-09-13T15:06:12.512Z,1.50
2017-09-13T15:08:40.065Z,1.80
2017-09-13T15:11:07.577Z,1.60
2017-09-13T15:13:35.345Z,1.25
2017-09-13T15:16:02.882Z,1.20
2017-09-13T15:18:30.449Z,2.12
2017-09-13T15:20:57.972Z,1.70
2017-09-13T15:23:25.541Z,3.67
2017-09-13T15:25:53.356Z,1.05
2017-09-13T15:28:20.933Z,1.95
2017-09-13T15:30:48.460Z,2.05
2017-09-13T15:33:16.090Z,2.28
2017-09-13T15:35:43.622Z,2.58
2017-09-13T15:38:12.242Z,2.00
2017-09-13T15:40:39.758Z,1.87
2017-09-13T15:43:08.152Z,2.60
2017-09-13T15:45:35.695Z,2.42
2017-09-13T15:48:03.988Z,1.70
2017-09-13T15:50:32.392Z,2.40
2017-09-13T15:52:59.907Z,2.97
2017-09-13T15:55:27.426Z,2.87
2017-09-13T15:57:54.963Z,2.95
2017-09-13T16:00:22.502Z,2.70
2017-09-13T16:02:50.792Z,2.85
2017-09-13T16:05:18.356Z,2.70
2017-09-13T16:07:45.912Z,2.12
2017-09-13T16:10:13.470Z,2.03
2017-09-13T16:12:41.138Z,3.17
2017-09-13T16:15:08.660Z,1.50
2017-09-13T16:17:36.181Z,1.70
2017-09-13T16:20:03.701Z,2.45
2017-09-13T16:22:31.996Z,1.83
2017-09-13T16:24:59.516Z,1.80
2017-09-13T16:27:27.058Z,2.70
2017-09-13T16:29:54.676Z,1.98
2017-09-13T16:32:22.189Z,2.22
2017-09-13T16:34:49.697Z,2.40
2017-09-13T16:37:17.228Z,2.45
2017-09-13T16:39:45.559Z,2.17
2017-09-13T16:42:13.074Z,1.85
2017-09-13T16:44:40.656Z,1.90
2017-09-13T16:47:08.299Z,1.45
2017-09-13T16:49:36.641Z,1.40
2017-09-13T16:52:04.198Z,1.75
2017-09-13T16:54:31.778Z,1.35
2017-09-13T16:56:59.316Z,1.67
2017-09-13T16:59:26.855Z,2.17
2017-09-13T17:01:54.413Z,2.28
2017-09-13T17:04:21.932Z,2.00
2017-09-13T17:06:50.251Z,1.23
2017-09-13T17:09:17.827Z,1.73
2017-09-13T17:11:45.463Z,3.25
2017-09-13T17:14:13.062Z,2.10
2017-09-13T17:16:40.577Z,1.50
2017-09-13T17:19:08.115Z,1.95
2017-09-13T17:21:36.422Z,1.40
2017-09-13T17:24:04.801Z,2.22
2017-09-13T17:26:32.367Z,2.12
2017-09-13T17:28:59.959Z,1.27
2017-09-13T17:31:27.538Z,2.15
2017-09-13T17:33:55.079Z,2.05
2017-09-13T17:36:22.630Z,2.10
2017-09-13T17:38:50.221Z,2.30
2017-09-13T17:41:18.656Z,2.53
2017-09-13T17:43:46.309Z,2.28
2017-09-13T17:46:13.820Z,1.98
2017-09-13T17:48:42.187Z,2.60
2017-09-13T17:51:09.781Z,2.60
2017-09-13T17:53:38.064Z,2.50
2017-09-13T17:56:05.643Z,2.78
2017-09-13T17:58:33.171Z,2.55
2017-09-13T18:01:01.499Z,2.15
2017-09-13T18:03:29.074Z,2.70
2017-09-13T18:05:56.715Z,2.53
2017-09-13T18:08:24.294Z,3.75
2017-09-13T18:10:56.098Z,3.47
2017-09-13T18:13:23.793Z,2.37
2017-09-13T18:15:51.354Z,3.50
2017-09-13T18:18:19.047Z,2.83
2017-09-13T18:20:46.592Z,3.42
2017-09-13T18:23:14.144Z,2.60
2017-09-13T18:25:41.673Z,1.65
2017-09-13T18:28:10.120Z,2.05
2017-09-13T18:30:37.652Z,2.40
2017-09-13T18:33:05.197Z,2.92
2017-09-13T18:35:32.856Z,1.70
2017-09-13T18:38:00.394Z,3.45
2017-09-13T18:40:28.174Z,2.90
2017-09-13T18:42:55.883Z,3.28
2017-09-13T18:45:28.311Z,2.60
2017-09-13T18:53:47.268Z,2.05
2017-09-13T18:56:15.579Z,1.87
2017-09-13T18:58:43.108Z,2.60
2017-09-13T19:01:11.405Z,2.08
2017-09-13T19:03:38.984Z,1.50
2017-09-13T19:06:06.526Z,1.73
2017-09-13T19:08:35.144Z,1.95
2017-09-13T19:11:02.716Z,2.20
2017-09-13T19:13:30.228Z,2.28
2017-09-13T19:15:58.544Z,2.15
2017-09-13T19:18:26.094Z,2.12
2017-09-13T19:20:53.661Z,1.95
2017-09-13T19:23:21.203Z,2.90
2017-09-13T19:25:48.860Z,2.05
2017-09-13T19:28:16.416Z,1.75
2017-09-13T19:30:44.025Z,2.35
2017-09-13T19:33:11.649Z,2.15
2017-09-13T19:35:39.200Z,1.85
2017-09-13T19:38:07.670Z,1.67
2017-09-13T19:40:35.233Z,2.67
2017-09-13T19:43:03.637Z,1.95
2017-09-13T19:46:19.889Z,2.05
2017-09-13T19:59:27.293Z,2.00
2017-09-13T20:01:55.012Z,1.42
2017-09-13T20:04:23.300Z,1.40
2017-09-13T20:06:50.854Z,2.17
2017-09-13T20:09:19.348Z,1.30
2017-09-13T20:11:46.999Z,1.92
2017-09-13T20:14:15.404Z,1.85
2017-09-13T20:16:42.941Z,1.20
2017-09-13T20:19:10.611Z,1.45
2017-09-13T20:21:38.125Z,2.65
2017-09-13T20:24:05.688Z,1.60
2017-09-13T20:26:33.990Z,2.25
2017-09-13T20:29:01.534Z,1.85
2017-09-13T20:31:29.141Z,1.23
2017-09-13T20:33:57.440Z,1.27
2017-09-13T20:36:25.045Z,1.70
2017-09-13T20:38:52.592Z,1.42
2017-09-13T20:41:20.169Z,1.50
2017-09-13T20:43:47.731Z,1.33
2017-09-13T20:46:15.302Z,2.05
2017-09-13T20:48:42.892Z,1.73
2017-09-13T20:51:10.444Z,1.70
2017-09-13T20:53:38.906Z,1.70
2017-09-13T20:56:07.265Z,1.65
2017-09-13T20:58:35.102Z,1.75
2017-09-13T21:01:02.819Z,2.17
2017-09-13T21:03:30.516Z,1.65
2017-09-13T21:05:58.219Z,2.30
2017-09-13T21:08:25.868Z,1.85
2017-09-13T21:10:53.593Z,1.42
2017-09-13T21:13:21.957Z,1.52
2017-09-13T21:15:49.553Z,1.35
2017-09-13T21:18:17.112Z,1.48
2017-09-13T21:20:44.708Z,1.73
2017-09-13T21:23:12.351Z,1.85
2017-09-13T21:25:40.018Z,1.60
2017-09-13T21:28:07.552Z,1.90
2017-09-13T21:30:35.079Z,1.33
2017-09-13T21:33:02.683Z,1.35
2017-09-13T21:35:30.232Z,1.70
2017-09-13T21:37:57.803Z,1.50
2017-09-13T21:40:25.355Z,1.55
2017-09-13T21:42:52.922Z,1.45
2017-09-13T21:45:20.482Z,1.30
2017-09-13T21:47:48.003Z,1.77
2017-09-13T21:50:15.545Z,1.55
2017-09-13T21:52:43.139Z,1.12
2017-09-13T21:55:10.751Z,1.48
2017-09-13T21:57:38.304Z,1.67
2017-09-13T22:00:06.652Z,2.05
2017-09-13T22:02:34.200Z,1.52
2017-09-13T22:05:01.751Z,1.90
2017-09-13T22:07:30.110Z,2.40
2017-09-13T22:09:57.642Z,1.75
2017-09-13T22:12:25.309Z,1.37
2017-09-13T22:14:52.855Z,1.83
2017-09-13T22:17:20.456Z,1.65
2017-09-13T22:19:48.835Z,1.83
2017-09-13T22:22:16.480Z,2.30
2017-09-13T22:24:44.026Z,1.67
2017-09-13T22:27:11.567Z,1.58
2017-09-13T22:29:39.096Z,1.52
2017-09-13T22:32:06.699Z,1.33
2017-09-13T22:34:34.226Z,1.23
2017-09-13T22:37:01.843Z,1.25
2017-09-13T22:39:29.406Z,1.23
2017-09-13T22:41:56.935Z,2.10
2017-09-13T22:44:24.540Z,1.27
2017-09-13T22:46:52.078Z,2.05
2017-09-13T22:49:20.022Z,1.50
2017-09-13T22:51:47.692Z,1.20
2017-09-13T22:54:15.279Z,1.30
2017-09-13T22:56:42.817Z,1.92
2017-09-13T22:59:10.684Z,1.40
2017-09-13T23:01:38.242Z,1.55
2017-09-13T23:04:05.757Z,1.23
2017-09-13T23:06:33.293Z,1.65
2017-09-13T23:09:00.883Z,1.85
2017-09-13T23:11:28.448Z,1.95
2017-09-13T23:13:55.994Z,1.48
2017-09-13T23:16:23.532Z,1.60
2017-09-13T23:19:03.074Z,1.70
2017-09-13T23:21:30.706Z,1.75
2017-09-13T23:23:58.240Z,1.52
2017-09-13T23:26:25.767Z,1.60
2017-09-13T23:28:53.868Z,1.30
2017-09-13T23:31:22.677Z,2.50
2017-09-13T23:33:50.282Z,1.55
2017-09-13T23:36:18.620Z,2.17
2017-09-13T23:38:46.156Z,1.50
2017-09-13T23:41:13.674Z,2.08
2017-09-13T23:43:41.187Z,1.62
2017-09-13T23:46:08.804Z,1.90
2017-09-13T23:48:37.713Z,1.50
2017-09-13T23:51:07.156Z,2.45
2017-09-13T23:53:34.690Z,2.65
2017-09-13T23:56:03.013Z,1.65
2017-09-13T23:58:30.585Z,2.00
